Airfield :
LOGIN :

Register | Disclaimer

   EN    FR    IT 

 










Legend :    VFR   Marginal VFR   IFR   Intensive IFR   Very Intensive IFR
Visi :
Ceiling :
>= 8 km
>= 3000ft
5 to 8 km
1000 to 3000 ft
1500m to 5 km
500 to 1000 ft
800 to 1500m
200 to 500 ft
< 800m
< 200 ft
Symbols :   Thunderstorms  Fog  Heavy snow  Heavy precipitations  Wind > 20 kt
SIGMETs :     Misc.  Thunderstorms  Icing  Turbulence  Mountain Waves  Volcanic Ashes






- Airport Elevation : 913 ft


LFSX - Luxeuil

CURRENT METAR :
  • 261700Z AUTO 26005KT 9999 -DZ OVC037/// ///TCU 09/07 Q1005

EXPIRED METARs :
  • 261630Z AUTO 27006KT 9999 -RADZ BKN036/// OVC042/// ///TCU 09/07 Q1005
  • 261600Z AUTO VRB03KT 9999 -RA BKN029/// OVC037/// ///TCU 09/08 Q1005
  • 261530Z AUTO VRB02KT 9999 -RA BKN029/// OVC034/// ///TCU 09/07 Q1005
  • 261500Z AUTO 25005KT 230V290 9999 -RA BKN035/// OVC050/// ///TCU 09/07 Q1005
  • 261430Z AUTO 27007KT 8000 RA BKN030/// BKN037/// OVC049/// ///TCU 08/07 Q1006
  • 261400Z AUTO 28008KT 9999 -RA FEW023/// SCT030/// BKN038/// ///CB 09/07 Q1006

Expired Forecast.



MET'MAP, your aeronautical weather chart ! - Copyright ORBIFLY December 2007 - Disclaimer

ORBIFLY MET'MAP TEAM :

Programming & Development : Alexandra Zaïnal
Concept & original design : Baudouin d'Aumeries
Assistance for programming : Marc-Olivier Méhu
Technical & hardware support : Manuel Goepfert

Contact : metmap@orbifly.com




SOURCES & CREDITS :

   NOAA